Terminal Aerodrome Forecast
Issued by NWS

Home | Current Version | Previous Version | Text Only | Print | Product List | Glossary On
Versions: 1 2 3 4 5 6 7 8 9 10 11 12 13 14 15 16 17 18
000
FTUS44 KSJT 190500
TAFSOA
TAF
KSOA 190534Z 1906/2006 04005KT P6SM VCSH BKN035
     FM190700 03006KT 6SM -SHRA BR OVC007
     FM191300 03005KT 6SM BR OVC006
     FM191800 02006KT P6SM BKN015
     FM192200 05005KT P6SM SCT025=

USA.gov is the U.S. government's official web portal to all federal, state and local government web resources and services.